sensor_id;sensor_type;location;lat;lon;timestamp;P1;durP1;ratioP1;P2;durP2;ratioP2
39502;SDS011;26970;49.900;10.774;2022-11-15T00:00:54;10.25;;;6.38;;
39502;SDS011;26970;49.900;10.774;2022-11-15T00:03:26;9.02;;;6.18;;
39502;SDS011;26970;49.900;10.774;2022-11-15T00:05:52;11.50;;;6.35;;
39502;SDS011;26970;49.900;10.774;2022-11-15T00:08:18;13.80;;;6.63;;
39502;SDS011;26970;49.900;10.774;2022-11-15T00:10:53;9.57;;;6.38;;
39502;SDS011;26970;49.900;10.774;2022-11-15T00:13:23;10.15;;;6.53;;
39502;SDS011;26970;49.900;10.774;2022-11-15T00:15:49;8.50;;;5.68;;
39502;SDS011;26970;49.900;10.774;2022-11-15T00:18:15;12.65;;;6.60;;
39502;SDS011;26970;49.900;10.774;2022-11-15T00:20:41;13.40;;;8.27;;
39502;SDS011;26970;49.900;10.774;2022-11-15T00:23:07;9.07;;;5.72;;
39502;SDS011;26970;49.900;10.774;2022-11-15T00:25:33;10.80;;;6.15;;
39502;SDS011;26970;49.900;10.774;2022-11-15T00:27:59;8.98;;;6.57;;
39502;SDS011;26970;49.900;10.774;2022-11-15T00:30:25;11.57;;;5.85;;
39502;SDS011;26970;49.900;10.774;2022-11-15T00:32:53;10.65;;;5.95;;
39502;SDS011;26970;49.900;10.774;2022-11-15T00:35:19;11.18;;;6.75;;
39502;SDS011;26970;49.900;10.774;2022-11-15T00:37:45;10.38;;;6.38;;
39502;SDS011;26970;49.900;10.774;2022-11-15T00:40:12;10.70;;;6.43;;
39502;SDS011;26970;49.900;10.774;2022-11-15T00:42:38;11.65;;;6.70;;
39502;SDS011;26970;49.900;10.774;2022-11-15T00:45:04;10.57;;;6.47;;
39502;SDS011;26970;49.900;10.774;2022-11-15T00:47:30;10.68;;;5.95;;
39502;SDS011;26970;49.900;10.774;2022-11-15T00:49:55;10.20;;;6.47;;
39502;SDS011;26970;49.900;10.774;2022-11-15T00:52:21;11.35;;;7.00;;
39502;SDS011;26970;49.900;10.774;2022-11-15T00:54:46;13.57;;;6.68;;
39502;SDS011;26970;49.900;10.774;2022-11-15T00:57:12;9.20;;;6.20;;
39502;SDS011;26970;49.900;10.774;2022-11-15T00:59:37;12.85;;;6.13;;
39502;SDS011;26970;49.900;10.774;2022-11-15T01:02:03;8.80;;;6.15;;
39502;SDS011;26970;49.900;10.774;2022-11-15T01:04:28;9.82;;;6.05;;
39502;SDS011;26970;49.900;10.774;2022-11-15T01:06:54;10.95;;;6.13;;
39502;SDS011;26970;49.900;10.774;2022-11-15T01:09:19;8.85;;;5.75;;
39502;SDS011;26970;49.900;10.774;2022-11-15T01:11:45;11.05;;;6.07;;
39502;SDS011;26970;49.900;10.774;2022-11-15T01:14:11;8.23;;;5.70;;
39502;SDS011;26970;49.900;10.774;2022-11-15T01:16:36;9.73;;;5.90;;
39502;SDS011;26970;49.900;10.774;2022-11-15T01:19:02;10.30;;;6.05;;
39502;SDS011;26970;49.900;10.774;2022-11-15T01:21:28;10.02;;;6.10;;
39502;SDS011;26970;49.900;10.774;2022-11-15T01:23:54;11.60;;;6.18;;
39502;SDS011;26970;49.900;10.774;2022-11-15T01:26:21;7.93;;;5.15;;
39502;SDS011;26970;49.900;10.774;2022-11-15T01:28:47;12.60;;;5.95;;
39502;SDS011;26970;49.900;10.774;2022-11-15T01:31:14;9.52;;;5.80;;
39502;SDS011;26970;49.900;10.774;2022-11-15T01:33:42;9.25;;;5.47;;
39502;SDS011;26970;49.900;10.774;2022-11-15T01:36:10;8.88;;;6.03;;
39502;SDS011;26970;49.900;10.774;2022-11-15T01:38:38;10.15;;;6.13;;
39502;SDS011;26970;49.900;10.774;2022-11-15T01:41:04;8.82;;;6.10;;
39502;SDS011;26970;49.900;10.774;2022-11-15T01:43:31;16.52;;;6.85;;
39502;SDS011;26970;49.900;10.774;2022-11-15T01:46:05;10.40;;;6.18;;
39502;SDS011;26970;49.900;10.774;2022-11-15T01:48:46;10.48;;;6.10;;
39502;SDS011;26970;49.900;10.774;2022-11-15T01:51:15;9.82;;;6.50;;
39502;SDS011;26970;49.900;10.774;2022-11-15T01:53:42;11.27;;;6.18;;
39502;SDS011;26970;49.900;10.774;2022-11-15T01:56:15;10.13;;;6.40;;
39502;SDS011;26970;49.900;10.774;2022-11-15T01:58:44;9.18;;;6.00;;
39502;SDS011;26970;49.900;10.774;2022-11-15T02:01:11;12.70;;;7.22;;
39502;SDS011;26970;49.900;10.774;2022-11-15T02:03:46;10.60;;;6.97;;
39502;SDS011;26970;49.900;10.774;2022-11-15T02:08:46;10.73;;;5.63;;
39502;SDS011;26970;49.900;10.774;2022-11-15T02:11:12;10.95;;;6.05;;
39502;SDS011;26970;49.900;10.774;2022-11-15T02:13:37;10.48;;;6.78;;
39502;SDS011;26970;49.900;10.774;2022-11-15T02:18:49;10.27;;;6.03;;
39502;SDS011;26970;49.900;10.774;2022-11-15T02:21:23;9.68;;;6.80;;
39502;SDS011;26970;49.900;10.774;2022-11-15T02:24:04;11.40;;;6.47;;
39502;SDS011;26970;49.900;10.774;2022-11-15T02:30:19;13.02;;;6.78;;
39502;SDS011;26970;49.900;10.774;2022-11-15T02:32:50;9.27;;;6.65;;
39502;SDS011;26970;49.900;10.774;2022-11-15T02:37:58;9.98;;;6.90;;
39502;SDS011;26970;49.900;10.774;2022-11-15T02:40:38;9.38;;;6.47;;
39502;SDS011;26970;49.900;10.774;2022-11-15T02:43:11;10.02;;;6.43;;
39502;SDS011;26970;49.900;10.774;2022-11-15T02:46:06;12.15;;;6.40;;
39502;SDS011;26970;49.900;10.774;2022-11-15T02:51:06;10.05;;;6.72;;
39502;SDS011;26970;49.900;10.774;2022-11-15T02:53:32;12.82;;;6.80;;
39502;SDS011;26970;49.900;10.774;2022-11-15T02:55:57;10.93;;;7.40;;
39502;SDS011;26970;49.900;10.774;2022-11-15T03:00:51;10.10;;;7.60;;
39502;SDS011;26970;49.900;10.774;2022-11-15T03:06:19;10.18;;;7.03;;
39502;SDS011;26970;49.900;10.774;2022-11-15T03:09:06;10.95;;;7.38;;
39502;SDS011;26970;49.900;10.774;2022-11-15T03:11:38;9.88;;;6.90;;
39502;SDS011;26970;49.900;10.774;2022-11-15T03:19:30;9.43;;;6.68;;
39502;SDS011;26970;49.900;10.774;2022-11-15T03:22:19;10.68;;;6.63;;
39502;SDS011;26970;49.900;10.774;2022-11-15T03:24:47;9.38;;;6.20;;
39502;SDS011;26970;49.900;10.774;2022-11-15T03:27:19;11.10;;;7.03;;
39502;SDS011;26970;49.900;10.774;2022-11-15T03:29:50;14.18;;;6.57;;
39502;SDS011;26970;49.900;10.774;2022-11-15T03:32:26;8.57;;;6.10;;
39502;SDS011;26970;49.900;10.774;2022-11-15T03:37:21;11.23;;;6.10;;
39502;SDS011;26970;49.900;10.774;2022-11-15T03:39:50;9.35;;;6.32;;
39502;SDS011;26970;49.900;10.774;2022-11-15T03:45:07;10.05;;;6.00;;
39502;SDS011;26970;49.900;10.774;2022-11-15T03:52:49;10.13;;;6.20;;
39502;SDS011;26970;49.900;10.774;2022-11-15T03:55:17;9.10;;;6.03;;
39502;SDS011;26970;49.900;10.774;2022-11-15T03:57:44;9.65;;;6.38;;
39502;SDS011;26970;49.900;10.774;2022-11-15T04:00:11;9.43;;;6.38;;
39502;SDS011;26970;49.900;10.774;2022-11-15T04:02:36;9.38;;;6.45;;
39502;SDS011;26970;49.900;10.774;2022-11-15T04:05:02;13.45;;;7.15;;
39502;SDS011;26970;49.900;10.774;2022-11-15T04:07:28;11.77;;;6.88;;
39502;SDS011;26970;49.900;10.774;2022-11-15T04:09:54;11.52;;;6.60;;
39502;SDS011;26970;49.900;10.774;2022-11-15T04:12:29;10.77;;;6.93;;
39502;SDS011;26970;49.900;10.774;2022-11-15T04:14:59;9.88;;;6.40;;
39502;SDS011;26970;49.900;10.774;2022-11-15T04:17:40;11.00;;;7.13;;
39502;SDS011;26970;49.900;10.774;2022-11-15T04:20:12;8.60;;;6.22;;
39502;SDS011;26970;49.900;10.774;2022-11-15T04:23:00;9.85;;;6.75;;
39502;SDS011;26970;49.900;10.774;2022-11-15T04:25:45;10.48;;;6.82;;
39502;SDS011;26970;49.900;10.774;2022-11-15T04:28:12;11.18;;;7.15;;
39502;SDS011;26970;49.900;10.774;2022-11-15T04:30:38;10.23;;;6.40;;
39502;SDS011;26970;49.900;10.774;2022-11-15T04:33:03;9.38;;;6.65;;
39502;SDS011;26970;49.900;10.774;2022-11-15T04:35:29;11.25;;;6.53;;
39502;SDS011;26970;49.900;10.774;2022-11-15T04:37:55;11.55;;;7.03;;
39502;SDS011;26970;49.900;10.774;2022-11-15T04:40:22;8.10;;;6.13;;
39502;SDS011;26970;49.900;10.774;2022-11-15T04:42:47;9.20;;;6.55;;
39502;SDS011;26970;49.900;10.774;2022-11-15T04:45:13;9.43;;;6.63;;
39502;SDS011;26970;49.900;10.774;2022-11-15T04:47:39;9.73;;;6.80;;
39502;SDS011;26970;49.900;10.774;2022-11-15T04:50:04;12.57;;;7.93;;
39502;SDS011;26970;49.900;10.774;2022-11-15T04:52:30;11.05;;;6.47;;
39502;SDS011;26970;49.900;10.774;2022-11-15T04:54:56;11.57;;;6.93;;
39502;SDS011;26970;49.900;10.774;2022-11-15T04:57:21;10.20;;;6.75;;
39502;SDS011;26970;49.900;10.774;2022-11-15T04:59:47;9.50;;;6.35;;
39502;SDS011;26970;49.900;10.774;2022-11-15T05:02:12;10.85;;;6.72;;
39502;SDS011;26970;49.900;10.774;2022-11-15T05:04:38;10.93;;;7.28;;
39502;SDS011;26970;49.900;10.774;2022-11-15T05:07:04;9.55;;;6.57;;
39502;SDS011;26970;49.900;10.774;2022-11-15T05:09:29;9.50;;;6.53;;
39502;SDS011;26970;49.900;10.774;2022-11-15T05:11:55;11.15;;;6.70;;
39502;SDS011;26970;49.900;10.774;2022-11-15T05:14:20;9.57;;;6.72;;
39502;SDS011;26970;49.900;10.774;2022-11-15T05:16:46;9.63;;;6.68;;
39502;SDS011;26970;49.900;10.774;2022-11-15T05:19:11;12.13;;;7.10;;
39502;SDS011;26970;49.900;10.774;2022-11-15T05:21:37;10.02;;;6.88;;
39502;SDS011;26970;49.900;10.774;2022-11-15T05:24:03;9.20;;;6.75;;
39502;SDS011;26970;49.900;10.774;2022-11-15T05:26:29;10.45;;;6.75;;
39502;SDS011;26970;49.900;10.774;2022-11-15T05:28:55;14.95;;;7.20;;
39502;SDS011;26970;49.900;10.774;2022-11-15T05:31:22;9.70;;;6.72;;
39502;SDS011;26970;49.900;10.774;2022-11-15T05:33:49;10.85;;;6.40;;
39502;SDS011;26970;49.900;10.774;2022-11-15T05:39:03;10.88;;;6.57;;
39502;SDS011;26970;49.900;10.774;2022-11-15T05:41:32;8.65;;;5.60;;
39502;SDS011;26970;49.900;10.774;2022-11-15T05:44:01;9.50;;;6.60;;
39502;SDS011;26970;49.900;10.774;2022-11-15T05:46:28;10.15;;;6.55;;
39502;SDS011;26970;49.900;10.774;2022-11-15T05:48:54;7.93;;;5.82;;
39502;SDS011;26970;49.900;10.774;2022-11-15T05:51:21;9.15;;;6.15;;
39502;SDS011;26970;49.900;10.774;2022-11-15T05:53:48;10.68;;;6.35;;
39502;SDS011;26970;49.900;10.774;2022-11-15T05:56:14;9.18;;;6.28;;
39502;SDS011;26970;49.900;10.774;2022-11-15T05:58:40;9.20;;;6.10;;
39502;SDS011;26970;49.900;10.774;2022-11-15T06:01:07;8.30;;;6.30;;
39502;SDS011;26970;49.900;10.774;2022-11-15T06:03:32;8.68;;;6.30;;
39502;SDS011;26970;49.900;10.774;2022-11-15T06:05:58;13.35;;;11.30;;
39502;SDS011;26970;49.900;10.774;2022-11-15T06:08:23;21.17;;;17.20;;
39502;SDS011;26970;49.900;10.774;2022-11-15T06:10:49;11.45;;;9.95;;
39502;SDS011;26970;49.900;10.774;2022-11-15T06:13:14;19.42;;;15.32;;
39502;SDS011;26970;49.900;10.774;2022-11-15T06:15:40;18.67;;;16.23;;
39502;SDS011;26970;49.900;10.774;2022-11-15T06:18:05;12.30;;;10.38;;
39502;SDS011;26970;49.900;10.774;2022-11-15T06:20:31;11.02;;;8.52;;
39502;SDS011;26970;49.900;10.774;2022-11-15T06:22:57;17.27;;;13.40;;
39502;SDS011;26970;49.900;10.774;2022-11-15T06:25:28;10.90;;;7.47;;
39502;SDS011;26970;49.900;10.774;2022-11-15T06:27:55;10.23;;;7.30;;
39502;SDS011;26970;49.900;10.774;2022-11-15T06:30:22;9.32;;;6.63;;
39502;SDS011;26970;49.900;10.774;2022-11-15T06:32:49;12.85;;;7.25;;
39502;SDS011;26970;49.900;10.774;2022-11-15T06:35:14;11.55;;;6.47;;
39502;SDS011;26970;49.900;10.774;2022-11-15T06:37:41;9.68;;;7.05;;
39502;SDS011;26970;49.900;10.774;2022-11-15T06:40:07;10.77;;;7.30;;
39502;SDS011;26970;49.900;10.774;2022-11-15T06:42:34;9.10;;;6.13;;
39502;SDS011;26970;49.900;10.774;2022-11-15T06:44:59;10.43;;;6.38;;
39502;SDS011;26970;49.900;10.774;2022-11-15T06:47:25;10.75;;;6.20;;
39502;SDS011;26970;49.900;10.774;2022-11-15T06:49:51;9.23;;;5.85;;
39502;SDS011;26970;49.900;10.774;2022-11-15T06:52:16;7.72;;;5.55;;
39502;SDS011;26970;49.900;10.774;2022-11-15T06:54:44;9.82;;;6.07;;
39502;SDS011;26970;49.900;10.774;2022-11-15T06:57:10;9.65;;;5.88;;
39502;SDS011;26970;49.900;10.774;2022-11-15T06:59:36;10.15;;;5.30;;
39502;SDS011;26970;49.900;10.774;2022-11-15T07:02:02;7.80;;;5.45;;
39502;SDS011;26970;49.900;10.774;2022-11-15T07:04:27;7.30;;;5.85;;
39502;SDS011;26970;49.900;10.774;2022-11-15T07:06:53;10.90;;;5.90;;
39502;SDS011;26970;49.900;10.774;2022-11-15T07:09:18;9.57;;;6.80;;
39502;SDS011;26970;49.900;10.774;2022-11-15T07:11:44;10.35;;;7.22;;
39502;SDS011;26970;49.900;10.774;2022-11-15T07:14:10;11.70;;;7.50;;
39502;SDS011;26970;49.900;10.774;2022-11-15T07:16:36;10.18;;;7.03;;
39502;SDS011;26970;49.900;10.774;2022-11-15T07:19:02;10.40;;;6.45;;
39502;SDS011;26970;49.900;10.774;2022-11-15T07:21:28;7.75;;;5.57;;
39502;SDS011;26970;49.900;10.774;2022-11-15T07:23:53;8.05;;;5.85;;
39502;SDS011;26970;49.900;10.774;2022-11-15T07:26:19;9.02;;;5.50;;
39502;SDS011;26970;49.900;10.774;2022-11-15T07:28:45;8.48;;;5.72;;
39502;SDS011;26970;49.900;10.774;2022-11-15T07:31:10;7.82;;;5.45;;
39502;SDS011;26970;49.900;10.774;2022-11-15T07:33:36;9.40;;;5.82;;
39502;SDS011;26970;49.900;10.774;2022-11-15T07:36:02;7.90;;;5.85;;
39502;SDS011;26970;49.900;10.774;2022-11-15T07:38:29;8.25;;;5.47;;
39502;SDS011;26970;49.900;10.774;2022-11-15T07:40:55;8.52;;;6.00;;
39502;SDS011;26970;49.900;10.774;2022-11-15T07:43:22;10.63;;;5.85;;
39502;SDS011;26970;49.900;10.774;2022-11-15T07:45:48;10.18;;;6.05;;
39502;SDS011;26970;49.900;10.774;2022-11-15T07:48:13;9.70;;;6.60;;
39502;SDS011;26970;49.900;10.774;2022-11-15T07:50:42;8.27;;;5.82;;
39502;SDS011;26970;49.900;10.774;2022-11-15T07:53:08;9.70;;;5.20;;
39502;SDS011;26970;49.900;10.774;2022-11-15T07:55:34;8.55;;;5.68;;
39502;SDS011;26970;49.900;10.774;2022-11-15T07:58:01;8.18;;;5.13;;
39502;SDS011;26970;49.900;10.774;2022-11-15T08:00:27;7.18;;;4.75;;
39502;SDS011;26970;49.900;10.774;2022-11-15T08:03:00;7.13;;;4.88;;
39502;SDS011;26970;49.900;10.774;2022-11-15T08:05:27;7.47;;;5.18;;
39502;SDS011;26970;49.900;10.774;2022-11-15T08:07:54;7.35;;;4.72;;
39502;SDS011;26970;49.900;10.774;2022-11-15T08:10:20;7.90;;;5.00;;
39502;SDS011;26970;49.900;10.774;2022-11-15T08:12:46;8.20;;;5.10;;
39502;SDS011;26970;49.900;10.774;2022-11-15T08:15:11;6.63;;;4.90;;
39502;SDS011;26970;49.900;10.774;2022-11-15T08:17:37;7.68;;;4.75;;
39502;SDS011;26970;49.900;10.774;2022-11-15T08:20:03;7.10;;;4.38;;
39502;SDS011;26970;49.900;10.774;2022-11-15T08:22:29;7.85;;;5.60;;
39502;SDS011;26970;49.900;10.774;2022-11-15T08:24:55;7.90;;;4.88;;
39502;SDS011;26970;49.900;10.774;2022-11-15T08:27:20;6.85;;;4.85;;
39502;SDS011;26970;49.900;10.774;2022-11-15T08:29:47;6.50;;;5.10;;
39502;SDS011;26970;49.900;10.774;2022-11-15T08:32:13;8.02;;;4.70;;
39502;SDS011;26970;49.900;10.774;2022-11-15T08:34:39;8.07;;;5.00;;
39502;SDS011;26970;49.900;10.774;2022-11-15T08:37:05;6.75;;;4.93;;
39502;SDS011;26970;49.900;10.774;2022-11-15T08:39:30;7.20;;;4.63;;
39502;SDS011;26970;49.900;10.774;2022-11-15T08:41:56;6.88;;;4.80;;
39502;SDS011;26970;49.900;10.774;2022-11-15T08:44:22;7.25;;;4.53;;
39502;SDS011;26970;49.900;10.774;2022-11-15T08:46:48;6.75;;;4.75;;
39502;SDS011;26970;49.900;10.774;2022-11-15T08:49:14;9.57;;;4.70;;
39502;SDS011;26970;49.900;10.774;2022-11-15T08:51:40;5.78;;;3.83;;
39502;SDS011;26970;49.900;10.774;2022-11-15T08:54:05;7.53;;;4.60;;
39502;SDS011;26970;49.900;10.774;2022-11-15T08:56:31;7.45;;;4.78;;
39502;SDS011;26970;49.900;10.774;2022-11-15T08:58:56;7.65;;;4.82;;
39502;SDS011;26970;49.900;10.774;2022-11-15T09:01:22;7.80;;;4.68;;
39502;SDS011;26970;49.900;10.774;2022-11-15T09:03:48;7.40;;;5.18;;
39502;SDS011;26970;49.900;10.774;2022-11-15T09:06:14;7.82;;;4.45;;
39502;SDS011;26970;49.900;10.774;2022-11-15T09:08:40;6.95;;;4.40;;
39502;SDS011;26970;49.900;10.774;2022-11-15T09:11:06;9.20;;;4.63;;
39502;SDS011;26970;49.900;10.774;2022-11-15T09:13:33;6.88;;;4.72;;
39502;SDS011;26970;49.900;10.774;2022-11-15T09:16:00;6.97;;;4.30;;
39502;SDS011;26970;49.900;10.774;2022-11-15T09:18:26;7.30;;;4.85;;
39502;SDS011;26970;49.900;10.774;2022-11-15T09:20:56;6.28;;;4.20;;
39502;SDS011;26970;49.900;10.774;2022-11-15T09:23:25;5.30;;;3.72;;
39502;SDS011;26970;49.900;10.774;2022-11-15T09:25:51;7.03;;;4.20;;
39502;SDS011;26970;49.900;10.774;2022-11-15T09:28:22;8.45;;;4.25;;
39502;SDS011;26970;49.900;10.774;2022-11-15T09:31:01;6.75;;;4.20;;
39502;SDS011;26970;49.900;10.774;2022-11-15T09:33:29;6.63;;;4.10;;
39502;SDS011;26970;49.900;10.774;2022-11-15T09:35:59;5.95;;;4.10;;
39502;SDS011;26970;49.900;10.774;2022-11-15T09:38:28;5.88;;;3.75;;
39502;SDS011;26970;49.900;10.774;2022-11-15T09:40:58;6.00;;;3.83;;
39502;SDS011;26970;49.900;10.774;2022-11-15T09:43:44;6.45;;;4.07;;
39502;SDS011;26970;49.900;10.774;2022-11-15T09:49:15;5.78;;;3.80;;
39502;SDS011;26970;49.900;10.774;2022-11-15T09:51:43;7.05;;;3.85;;
39502;SDS011;26970;49.900;10.774;2022-11-15T09:56:46;8.23;;;4.43;;
39502;SDS011;26970;49.900;10.774;2022-11-15T10:02:19;6.80;;;4.18;;
39502;SDS011;26970;49.900;10.774;2022-11-15T10:04:53;6.10;;;3.80;;
39502;SDS011;26970;49.900;10.774;2022-11-15T10:07:54;6.40;;;4.03;;
39502;SDS011;26970;49.900;10.774;2022-11-15T10:10:34;8.85;;;3.83;;
39502;SDS011;26970;49.900;10.774;2022-11-15T10:13:03;7.68;;;4.22;;
39502;SDS011;26970;49.900;10.774;2022-11-15T10:15:29;6.45;;;4.28;;
39502;SDS011;26970;49.900;10.774;2022-11-15T10:18:00;5.95;;;3.80;;
39502;SDS011;26970;49.900;10.774;2022-11-15T10:20:50;7.57;;;4.43;;
39502;SDS011;26970;49.900;10.774;2022-11-15T10:23:22;5.25;;;3.70;;
39502;SDS011;26970;49.900;10.774;2022-11-15T10:25:50;6.85;;;3.92;;
39502;SDS011;26970;49.900;10.774;2022-11-15T10:28:30;6.80;;;4.30;;
39502;SDS011;26970;49.900;10.774;2022-11-15T10:30:57;6.82;;;4.40;;
39502;SDS011;26970;49.900;10.774;2022-11-15T10:36:14;5.95;;;4.00;;
39502;SDS011;26970;49.900;10.774;2022-11-15T10:41:13;5.10;;;3.70;;
39502;SDS011;26970;49.900;10.774;2022-11-15T10:43:42;6.70;;;4.15;;
39502;SDS011;26970;49.900;10.774;2022-11-15T10:46:16;7.45;;;3.63;;
39502;SDS011;26970;49.900;10.774;2022-11-15T10:48:47;6.75;;;3.60;;
39502;SDS011;26970;49.900;10.774;2022-11-15T10:51:20;5.50;;;3.53;;
39502;SDS011;26970;49.900;10.774;2022-11-15T10:53:54;5.15;;;3.40;;
39502;SDS011;26970;49.900;10.774;2022-11-15T10:56:25;6.00;;;3.55;;
39502;SDS011;26970;49.900;10.774;2022-11-15T10:58:53;4.50;;;3.25;;
39502;SDS011;26970;49.900;10.774;2022-11-15T11:01:24;5.95;;;3.55;;
39502;SDS011;26970;49.900;10.774;2022-11-15T11:03:59;5.43;;;3.80;;
39502;SDS011;26970;49.900;10.774;2022-11-15T11:06:28;5.47;;;3.42;;
39502;SDS011;26970;49.900;10.774;2022-11-15T11:08:55;5.13;;;3.40;;
39502;SDS011;26970;49.900;10.774;2022-11-15T11:11:43;4.63;;;3.20;;
39502;SDS011;26970;49.900;10.774;2022-11-15T11:16:57;4.55;;;2.97;;
39502;SDS011;26970;49.900;10.774;2022-11-15T11:19:37;5.43;;;3.53;;
39502;SDS011;26970;49.900;10.774;2022-11-15T11:39:49;5.15;;;3.20;;
39502;SDS011;26970;49.900;10.774;2022-11-15T11:47:39;5.15;;;3.33;;
39502;SDS011;26970;49.900;10.774;2022-11-15T11:50:18;5.00;;;3.00;;
39502;SDS011;26970;49.900;10.774;2022-11-15T11:52:58;6.32;;;3.53;;
39502;SDS011;26970;49.900;10.774;2022-11-15T11:55:31;5.63;;;3.40;;
39502;SDS011;26970;49.900;10.774;2022-11-15T11:58:22;5.95;;;3.10;;
39502;SDS011;26970;49.900;10.774;2022-11-15T12:01:01;4.63;;;3.25;;
39502;SDS011;26970;49.900;10.774;2022-11-15T12:03:49;5.22;;;3.25;;
39502;SDS011;26970;49.900;10.774;2022-11-15T12:06:33;6.40;;;3.50;;
39502;SDS011;26970;49.900;10.774;2022-11-15T12:12:20;6.50;;;3.35;;
39502;SDS011;26970;49.900;10.774;2022-11-15T12:14:49;6.40;;;3.38;;
39502;SDS011;26970;49.900;10.774;2022-11-15T12:17:25;7.33;;;3.63;;
39502;SDS011;26970;49.900;10.774;2022-11-15T12:19:56;4.90;;;2.83;;
39502;SDS011;26970;49.900;10.774;2022-11-15T12:22:28;5.63;;;3.50;;
39502;SDS011;26970;49.900;10.774;2022-11-15T12:25:17;7.63;;;3.38;;
39502;SDS011;26970;49.900;10.774;2022-11-15T12:30:20;5.68;;;3.03;;
39502;SDS011;26970;49.900;10.774;2022-11-15T12:32:52;5.95;;;3.20;;
39502;SDS011;26970;49.900;10.774;2022-11-15T12:35:30;5.13;;;3.25;;
39502;SDS011;26970;49.900;10.774;2022-11-15T12:38:09;6.43;;;3.33;;
39502;SDS011;26970;49.900;10.774;2022-11-15T12:40:37;6.03;;;3.28;;
39502;SDS011;26970;49.900;10.774;2022-11-15T12:45:40;5.85;;;3.20;;
39502;SDS011;26970;49.900;10.774;2022-11-15T12:56:09;5.57;;;3.40;;
39502;SDS011;26970;49.900;10.774;2022-11-15T12:58:42;6.72;;;3.17;;
39502;SDS011;26970;49.900;10.774;2022-11-15T13:04:08;6.25;;;3.72;;
39502;SDS011;26970;49.900;10.774;2022-11-15T13:06:41;4.80;;;3.20;;
39502;SDS011;26970;49.900;10.774;2022-11-15T13:11:57;6.20;;;2.83;;
39502;SDS011;26970;49.900;10.774;2022-11-15T13:14:39;6.47;;;2.97;;
39502;SDS011;26970;49.900;10.774;2022-11-15T13:17:12;5.40;;;2.95;;
39502;SDS011;26970;49.900;10.774;2022-11-15T13:19:44;6.82;;;3.22;;
39502;SDS011;26970;49.900;10.774;2022-11-15T13:22:11;6.00;;;3.13;;
39502;SDS011;26970;49.900;10.774;2022-11-15T13:24:56;7.32;;;2.90;;
39502;SDS011;26970;49.900;10.774;2022-11-15T13:27:23;7.05;;;3.22;;
39502;SDS011;26970;49.900;10.774;2022-11-15T13:29:49;5.50;;;3.03;;
39502;SDS011;26970;49.900;10.774;2022-11-15T13:32:15;6.03;;;3.20;;
39502;SDS011;26970;49.900;10.774;2022-11-15T13:34:48;7.80;;;3.17;;
39502;SDS011;26970;49.900;10.774;2022-11-15T13:39:46;6.55;;;3.20;;
39502;SDS011;26970;49.900;10.774;2022-11-15T13:42:15;6.55;;;3.58;;
39502;SDS011;26970;49.900;10.774;2022-11-15T13:44:56;5.15;;;3.45;;
39502;SDS011;26970;49.900;10.774;2022-11-15T13:47:25;5.45;;;3.15;;
39502;SDS011;26970;49.900;10.774;2022-11-15T13:49:58;4.70;;;3.30;;
39502;SDS011;26970;49.900;10.774;2022-11-15T13:52:27;5.07;;;3.05;;
39502;SDS011;26970;49.900;10.774;2022-11-15T13:57:37;7.72;;;3.75;;
39502;SDS011;26970;49.900;10.774;2022-11-15T14:00:31;6.25;;;3.40;;
39502;SDS011;26970;49.900;10.774;2022-11-15T14:03:12;5.40;;;3.35;;
39502;SDS011;26970;49.900;10.774;2022-11-15T14:08:40;7.40;;;3.63;;
39502;SDS011;26970;49.900;10.774;2022-11-15T14:11:12;6.85;;;3.70;;
39502;SDS011;26970;49.900;10.774;2022-11-15T14:13:59;8.57;;;4.05;;
39502;SDS011;26970;49.900;10.774;2022-11-15T14:19:04;14.80;;;7.57;;
39502;SDS011;26970;49.900;10.774;2022-11-15T14:21:31;8.63;;;4.68;;
39502;SDS011;26970;49.900;10.774;2022-11-15T14:24:16;6.57;;;4.38;;
39502;SDS011;26970;49.900;10.774;2022-11-15T14:26:43;10.07;;;3.85;;
39502;SDS011;26970;49.900;10.774;2022-11-15T14:29:22;9.10;;;3.85;;
39502;SDS011;26970;49.900;10.774;2022-11-15T14:31:48;7.10;;;4.07;;
39502;SDS011;26970;49.900;10.774;2022-11-15T14:34:14;7.82;;;3.50;;
39502;SDS011;26970;49.900;10.774;2022-11-15T14:36:39;6.10;;;3.40;;
39502;SDS011;26970;49.900;10.774;2022-11-15T14:39:05;5.88;;;3.42;;
39502;SDS011;26970;49.900;10.774;2022-11-15T14:41:33;5.13;;;3.15;;
39502;SDS011;26970;49.900;10.774;2022-11-15T14:44:02;7.15;;;4.78;;
39502;SDS011;26970;49.900;10.774;2022-11-15T14:46:28;7.97;;;4.18;;
39502;SDS011;26970;49.900;10.774;2022-11-15T14:48:54;6.65;;;4.03;;
39502;SDS011;26970;49.900;10.774;2022-11-15T14:51:20;6.72;;;3.90;;
39502;SDS011;26970;49.900;10.774;2022-11-15T14:53:45;8.10;;;3.60;;
39502;SDS011;26970;49.900;10.774;2022-11-15T14:56:12;6.30;;;3.38;;
39502;SDS011;26970;49.900;10.774;2022-11-15T14:58:38;5.53;;;3.30;;
39502;SDS011;26970;49.900;10.774;2022-11-15T15:01:21;9.43;;;3.33;;
39502;SDS011;26970;49.900;10.774;2022-11-15T15:03:51;4.70;;;3.00;;
39502;SDS011;26970;49.900;10.774;2022-11-15T15:06:19;7.55;;;3.10;;
39502;SDS011;26970;49.900;10.774;2022-11-15T15:08:45;8.20;;;3.30;;
39502;SDS011;26970;49.900;10.774;2022-11-15T15:11:14;4.95;;;2.90;;
39502;SDS011;26970;49.900;10.774;2022-11-15T15:13:43;8.15;;;3.83;;
39502;SDS011;26970;49.900;10.774;2022-11-15T15:16:09;6.40;;;3.20;;
39502;SDS011;26970;49.900;10.774;2022-11-15T15:18:34;6.45;;;3.55;;
39502;SDS011;26970;49.900;10.774;2022-11-15T15:21:00;5.30;;;3.00;;
39502;SDS011;26970;49.900;10.774;2022-11-15T15:23:31;8.57;;;3.67;;
39502;SDS011;26970;49.900;10.774;2022-11-15T15:25:57;4.57;;;2.90;;
39502;SDS011;26970;49.900;10.774;2022-11-15T15:28:23;5.55;;;2.97;;
39502;SDS011;26970;49.900;10.774;2022-11-15T15:30:49;5.32;;;3.15;;
39502;SDS011;26970;49.900;10.774;2022-11-15T15:33:14;7.20;;;3.60;;
39502;SDS011;26970;49.900;10.774;2022-11-15T15:35:41;4.00;;;2.80;;
39502;SDS011;26970;49.900;10.774;2022-11-15T15:38:09;5.15;;;2.85;;
39502;SDS011;26970;49.900;10.774;2022-11-15T15:40:36;5.85;;;2.97;;
39502;SDS011;26970;49.900;10.774;2022-11-15T15:43:02;4.45;;;2.70;;
39502;SDS011;26970;49.900;10.774;2022-11-15T15:45:28;5.90;;;2.90;;
39502;SDS011;26970;49.900;10.774;2022-11-15T15:47:54;6.05;;;2.83;;
39502;SDS011;26970;49.900;10.774;2022-11-15T15:50:22;5.38;;;2.83;;
39502;SDS011;26970;49.900;10.774;2022-11-15T15:52:52;5.78;;;3.15;;
39502;SDS011;26970;49.900;10.774;2022-11-15T15:55:20;5.85;;;3.22;;
39502;SDS011;26970;49.900;10.774;2022-11-15T15:57:46;5.97;;;3.08;;
39502;SDS011;26970;49.900;10.774;2022-11-15T16:00:12;7.80;;;3.40;;
39502;SDS011;26970;49.900;10.774;2022-11-15T16:02:39;5.43;;;3.15;;
39502;SDS011;26970;49.900;10.774;2022-11-15T16:05:05;7.05;;;3.58;;
39502;SDS011;26970;49.900;10.774;2022-11-15T16:07:32;6.70;;;3.67;;
39502;SDS011;26970;49.900;10.774;2022-11-15T16:09:57;5.55;;;3.20;;
39502;SDS011;26970;49.900;10.774;2022-11-15T16:12:29;5.68;;;3.15;;
39502;SDS011;26970;49.900;10.774;2022-11-15T16:14:56;7.95;;;3.72;;
39502;SDS011;26970;49.900;10.774;2022-11-15T16:17:23;7.28;;;3.13;;
39502;SDS011;26970;49.900;10.774;2022-11-15T16:19:53;6.63;;;3.15;;
39502;SDS011;26970;49.900;10.774;2022-11-15T16:22:19;8.48;;;3.08;;
39502;SDS011;26970;49.900;10.774;2022-11-15T16:24:45;6.25;;;3.42;;
39502;SDS011;26970;49.900;10.774;2022-11-15T16:27:17;5.88;;;3.53;;
39502;SDS011;26970;49.900;10.774;2022-11-15T16:29:44;5.13;;;2.90;;
39502;SDS011;26970;49.900;10.774;2022-11-15T16:32:11;6.70;;;3.17;;